createdAt,value
2023-03-23T00:00:16.890Z,30.208
2023-03-23T00:05:19.853Z,30.206
2023-03-23T00:10:19.770Z,30.204
2023-03-23T00:15:20.118Z,30.204
2023-03-23T00:20:16.892Z,30.207
2023-03-23T00:25:19.876Z,30.207
2023-03-23T00:30:16.809Z,30.206
2023-03-23T00:35:16.914Z,30.205
2023-03-23T00:40:16.803Z,30.205
2023-03-23T00:45:19.809Z,30.208
2023-03-23T00:50:26.707Z,30.209
2023-03-23T00:55:16.848Z,30.205
2023-03-23T01:00:16.852Z,30.205
2023-03-23T01:05:19.780Z,30.202
2023-03-23T01:10:16.787Z,30.202
2023-03-23T01:15:16.895Z,30.200
2023-03-23T01:20:16.909Z,30.199
2023-03-23T01:25:19.805Z,30.198
2023-03-23T01:30:19.848Z,30.196
2023-03-23T01:35:19.797Z,30.196
2023-03-23T01:40:16.913Z,30.195
2023-03-23T01:45:16.896Z,30.196
2023-03-23T01:50:19.862Z,30.194
2023-03-23T01:55:19.780Z,30.193
2023-03-23T02:00:19.796Z,30.190
2023-03-23T02:05:16.885Z,30.188
2023-03-23T02:10:16.890Z,30.186
2023-03-23T02:15:19.892Z,30.185
2023-03-23T02:20:19.903Z,30.186
2023-03-23T02:25:16.933Z,30.189
2023-03-23T02:30:19.883Z,30.189
2023-03-23T02:35:19.883Z,30.187
2023-03-23T02:40:19.830Z,30.180
2023-03-23T02:45:19.873Z,30.179
2023-03-23T02:50:16.867Z,30.178
2023-03-23T02:55:19.896Z,30.179
2023-03-23T03:00:19.856Z,30.177
2023-03-23T03:05:19.862Z,30.174
2023-03-23T03:10:17.323Z,30.170
2023-03-23T03:15:19.858Z,30.170
2023-03-23T03:20:19.912Z,30.168
2023-03-23T03:25:18.689Z,30.164
2023-03-23T03:30:19.936Z,30.164
2023-03-23T03:35:16.936Z,30.162
2023-03-23T03:40:19.915Z,30.161
2023-03-23T03:45:19.875Z,30.160
2023-03-23T03:50:16.933Z,30.156
2023-03-23T03:55:19.880Z,30.157
2023-03-23T04:00:16.246Z,30.158
2023-03-23T04:05:16.251Z,30.160
2023-03-23T04:10:32.838Z,30.159
2023-03-23T04:15:19.143Z,30.163
2023-03-23T04:20:16.203Z,30.163
2023-03-23T04:25:19.181Z,30.160
2023-03-23T04:30:16.243Z,30.160
2023-03-23T04:35:19.201Z,30.159
2023-03-23T04:40:19.180Z,30.157
2023-03-23T04:45:16.185Z,30.158
2023-03-23T04:50:19.194Z,30.157
2023-03-23T04:55:19.175Z,30.154
2023-03-23T05:00:16.217Z,30.151
2023-03-23T05:05:19.275Z,30.147
2023-03-23T05:10:19.160Z,30.145
2023-03-23T05:15:16.096Z,30.142
2023-03-23T05:20:16.218Z,30.140
2023-03-23T05:25:19.177Z,30.137
2023-03-23T05:30:19.192Z,30.138
2023-03-23T05:35:16.279Z,30.139
2023-03-23T05:40:19.217Z,30.139
2023-03-23T05:45:19.208Z,30.140
2023-03-23T05:50:16.252Z,30.141
2023-03-23T05:55:19.228Z,30.138
2023-03-23T06:00:19.229Z,30.135
2023-03-23T06:05:16.258Z,30.132
2023-03-23T06:10:16.297Z,30.129
2023-03-23T06:15:19.226Z,30.129
2023-03-23T06:20:19.461Z,30.128
2023-03-23T06:25:16.237Z,30.127
2023-03-23T06:30:19.277Z,30.126
2023-03-23T06:35:16.217Z,30.123
2023-03-23T06:40:16.272Z,30.121
2023-03-23T06:45:16.354Z,30.115
2023-03-23T06:50:19.242Z,30.111
2023-03-23T06:55:19.242Z,30.105
2023-03-23T07:00:16.318Z,30.100
2023-03-23T07:05:19.316Z,30.097
2023-03-23T07:10:19.283Z,30.096
2023-03-23T07:15:16.211Z,30.089
2023-03-23T07:20:19.240Z,30.084
2023-03-23T07:25:16.322Z,30.080
2023-03-23T07:30:16.289Z,30.078
2023-03-23T07:35:19.235Z,30.073
2023-03-23T07:40:19.349Z,30.071
2023-03-23T07:45:16.324Z,30.066
2023-03-23T07:50:19.256Z,30.074
2023-03-23T07:55:19.316Z,30.074
2023-03-23T08:00:19.287Z,30.067
2023-03-23T08:05:16.320Z,30.061
2023-03-23T08:10:16.328Z,30.057
2023-03-23T08:15:19.276Z,30.055
2023-03-23T08:20:19.304Z,30.051
2023-03-23T08:25:19.315Z,30.049
2023-03-23T08:30:16.307Z,30.046
2023-03-23T08:35:16.295Z,30.049
2023-03-23T08:40:19.334Z,30.048
2023-03-23T08:45:19.335Z,30.054
2023-03-23T08:50:16.313Z,30.057
2023-03-23T08:55:16.364Z,30.053
2023-03-23T09:00:19.438Z,30.049
2023-03-23T09:05:19.268Z,30.051
2023-03-23T09:10:19.265Z,30.053
2023-03-23T09:15:18.665Z,30.048
2023-03-23T09:20:16.311Z,30.043
2023-03-23T09:25:19.331Z,30.041
2023-03-23T09:30:19.292Z,30.042
2023-03-23T09:35:16.374Z,30.039
2023-03-23T09:40:16.328Z,30.036
2023-03-23T09:45:16.346Z,30.037
2023-03-23T09:50:16.178Z,30.035
2023-03-23T09:55:16.376Z,30.035
2023-03-23T10:00:19.383Z,30.038
2023-03-23T10:05:16.385Z,30.035
2023-03-23T10:10:16.413Z,30.035
2023-03-23T10:15:19.373Z,30.030
2023-03-23T10:20:19.505Z,30.028
2023-03-23T10:25:19.329Z,30.027
2023-03-23T10:30:19.387Z,30.024
2023-03-23T10:35:19.395Z,30.020
2023-03-23T10:40:22.057Z,30.012
2023-03-23T10:45:16.420Z,30.009
2023-03-23T10:50:16.426Z,30.002
2023-03-23T10:55:19.496Z,30.004
2023-03-23T11:00:19.539Z,29.998
2023-03-23T11:05:24.943Z,29.994
2023-03-23T11:10:19.393Z,29.992
2023-03-23T11:15:19.326Z,29.993
2023-03-23T11:20:16.452Z,29.996
2023-03-23T11:25:19.399Z,29.995
2023-03-23T11:30:16.389Z,29.992
2023-03-23T11:35:19.450Z,29.992
2023-03-23T11:40:19.379Z,29.991
2023-03-23T11:45:16.454Z,29.989
2023-03-23T11:50:16.368Z,29.985
2023-03-23T11:55:16.468Z,29.982
2023-03-23T12:00:19.435Z,29.978
2023-03-23T12:05:16.457Z,29.972
2023-03-23T12:10:25.510Z,29.965
2023-03-23T12:15:20.231Z,29.962
2023-03-23T12:20:16.399Z,29.959
2023-03-23T12:25:19.436Z,29.955
2023-03-23T12:30:16.354Z,29.947
2023-03-23T12:35:16.477Z,29.946
2023-03-23T12:40:16.495Z,29.943
2023-03-23T12:45:19.471Z,29.938
2023-03-23T12:50:19.500Z,29.941
2023-03-23T12:55:19.468Z,29.943
2023-03-23T13:00:16.510Z,29.944
2023-03-23T13:05:19.485Z,29.945
2023-03-23T13:10:16.293Z,29.942
2023-03-23T13:15:16.426Z,29.941
2023-03-23T13:20:19.448Z,29.936
2023-03-23T13:25:19.395Z,29.929
2023-03-23T13:30:19.413Z,29.919
2023-03-23T13:35:19.453Z,29.921
2023-03-23T13:40:16.455Z,29.924
2023-03-23T13:45:16.434Z,29.922
2023-03-23T13:50:19.427Z,29.925
2023-03-23T13:55:19.427Z,29.923
2023-03-23T14:00:16.484Z,29.918
2023-03-23T14:05:16.510Z,29.917
2023-03-23T14:10:19.553Z,29.913
2023-03-23T14:15:19.482Z,29.905
2023-03-23T14:20:19.511Z,29.900
2023-03-23T14:25:16.499Z,29.898
2023-03-23T14:30:16.751Z,29.894
2023-03-23T14:35:16.475Z,29.895
2023-03-23T14:40:16.523Z,29.890
2023-03-23T14:45:16.491Z,29.886
2023-03-23T14:50:16.510Z,29.885
2023-03-23T14:55:16.518Z,29.887
2023-03-23T15:00:16.457Z,29.881
2023-03-23T15:05:19.543Z,29.871
2023-03-23T15:10:19.426Z,29.869
2023-03-23T15:15:19.462Z,29.874
2023-03-23T15:20:19.547Z,29.867
2023-03-23T15:25:19.505Z,29.858
2023-03-23T15:30:19.425Z,29.859
2023-03-23T15:35:19.504Z,29.853
2023-03-23T15:40:16.527Z,29.846
2023-03-23T15:45:16.310Z,29.846
2023-03-23T15:50:19.506Z,29.842
2023-03-23T15:55:19.589Z,29.842
2023-03-23T16:00:19.475Z,29.837
2023-03-23T16:05:19.542Z,29.830
2023-03-23T16:10:19.477Z,29.831
2023-03-23T16:15:19.517Z,29.826
2023-03-23T16:20:19.540Z,29.822
2023-03-23T16:25:19.544Z,29.818
2023-03-23T16:30:19.560Z,29.815
2023-03-23T16:35:19.470Z,29.804
2023-03-23T16:40:16.654Z,29.796
2023-03-23T16:45:16.575Z,29.790
2023-03-23T16:50:19.597Z,29.793
2023-03-23T16:55:16.551Z,29.787
2023-03-23T17:00:16.538Z,29.782
2023-03-23T17:05:16.418Z,29.778
2023-03-23T17:10:19.516Z,29.776
2023-03-23T17:15:19.499Z,29.779
2023-03-23T17:20:19.556Z,29.771
2023-03-23T17:25:17.340Z,29.761
2023-03-23T17:30:19.542Z,29.761
2023-03-23T17:35:16.558Z,29.761
2023-03-23T17:40:16.515Z,29.754
2023-03-23T17:45:16.633Z,29.749
2023-03-23T17:50:19.558Z,29.750
2023-03-23T17:55:16.592Z,29.745
2023-03-23T18:00:19.657Z,29.743
2023-03-23T18:05:16.632Z,29.736
2023-03-23T18:10:19.622Z,29.734
2023-03-23T18:15:19.571Z,29.731
2023-03-23T18:20:19.600Z,29.722
2023-03-23T18:25:16.636Z,29.722
2023-03-23T18:30:16.652Z,29.721
2023-03-23T18:35:19.617Z,29.718
2023-03-23T18:40:16.598Z,29.712
2023-03-23T18:45:16.657Z,29.708
2023-03-23T18:50:19.804Z,29.700
2023-03-23T18:55:21.021Z,29.696
2023-03-23T19:00:19.634Z,29.690
2023-03-23T19:05:19.666Z,29.685
2023-03-23T19:10:19.564Z,29.677
2023-03-23T19:15:16.680Z,29.665
2023-03-23T19:20:39.508Z,29.666
2023-03-23T19:25:19.583Z,29.670
2023-03-23T19:30:16.723Z,29.669
2023-03-23T19:35:16.760Z,29.669
2023-03-23T19:40:36.563Z,29.668
2023-03-23T19:45:19.671Z,29.663
2023-03-23T19:50:16.774Z,29.662
2023-03-23T19:55:19.736Z,29.663
2023-03-23T20:00:19.691Z,29.665
2023-03-23T20:05:19.720Z,29.664
2023-03-23T20:10:19.586Z,29.657
2023-03-23T20:15:19.659Z,29.660
2023-03-23T20:20:20.185Z,29.654
2023-03-23T20:25:19.699Z,29.653
2023-03-23T20:30:17.120Z,29.647
2023-03-23T20:35:16.656Z,29.639
2023-03-23T20:40:19.617Z,29.635
2023-03-23T20:45:19.620Z,29.634
2023-03-23T20:50:16.673Z,29.631
2023-03-23T20:55:19.652Z,29.633
2023-03-23T21:00:16.575Z,29.635
2023-03-23T21:05:19.698Z,29.641
2023-03-23T21:10:19.657Z,29.643
2023-03-23T21:15:16.692Z,29.636
2023-03-23T21:20:16.648Z,29.625
2023-03-23T21:25:19.665Z,29.613
2023-03-23T21:30:19.718Z,29.605
2023-03-23T21:35:19.710Z,29.601
2023-03-23T21:40:16.468Z,29.604
2023-03-23T21:45:16.705Z,29.603
2023-03-23T21:50:16.683Z,29.604
2023-03-23T21:55:16.734Z,29.599
2023-03-23T22:00:16.810Z,29.606
2023-03-23T22:05:16.660Z,29.617
2023-03-23T22:10:16.805Z,29.617
2023-03-23T22:15:16.791Z,29.623
2023-03-23T22:20:16.689Z,29.622
2023-03-23T22:25:16.722Z,29.615
2023-03-23T22:30:16.732Z,29.614
2023-03-23T22:35:19.738Z,29.610
2023-03-23T22:40:19.764Z,29.600
2023-03-23T22:45:16.753Z,29.619
2023-03-23T22:50:16.754Z,29.619
2023-03-23T22:55:16.578Z,29.619
2023-03-23T23:00:19.901Z,29.617
2023-03-23T23:05:19.709Z,29.622
2023-03-23T23:10:19.712Z,29.619
2023-03-23T23:15:19.721Z,29.620
2023-03-23T23:20:19.664Z,29.616
2023-03-23T23:25:19.746Z,29.608
2023-03-23T23:30:16.827Z,29.603
2023-03-23T23:35:19.718Z,29.600
2023-03-23T23:40:19.722Z,29.601
2023-03-23T23:45:19.739Z,29.602
2023-03-23T23:50:19.719Z,29.604
2023-03-23T23:55:16.743Z,29.604
